sensor_id;sensor_type;location;lat;lon;timestamp;P1;durP1;ratioP1;P2;durP2;ratioP2
76320;SDS011;65132;52.088;5.402;2023-04-24T00:01:14;1.85;;;0.80;;
76320;SDS011;65132;52.088;5.402;2023-04-24T00:03:43;2.33;;;0.65;;
76320;SDS011;65132;52.088;5.402;2023-04-24T00:06:09;1.98;;;0.65;;
76320;SDS011;65132;52.088;5.402;2023-04-24T00:08:36;2.00;;;0.80;;
76320;SDS011;65132;52.088;5.402;2023-04-24T00:11:02;2.20;;;0.98;;
76320;SDS011;65132;52.088;5.402;2023-04-24T00:13:28;2.38;;;1.00;;
76320;SDS011;65132;52.088;5.402;2023-04-24T00:15:55;2.10;;;0.90;;
76320;SDS011;65132;52.088;5.402;2023-04-24T00:18:21;4.07;;;1.77;;
76320;SDS011;65132;52.088;5.402;2023-04-24T00:20:47;3.58;;;1.63;;
76320;SDS011;65132;52.088;5.402;2023-04-24T00:23:13;3.00;;;1.60;;
76320;SDS011;65132;52.088;5.402;2023-04-24T00:25:40;3.10;;;1.50;;
76320;SDS011;65132;52.088;5.402;2023-04-24T00:28:09;3.28;;;1.73;;
76320;SDS011;65132;52.088;5.402;2023-04-24T00:30:35;3.10;;;1.60;;
76320;SDS011;65132;52.088;5.402;2023-04-24T00:33:08;3.42;;;1.70;;
76320;SDS011;65132;52.088;5.402;2023-04-24T00:35:40;3.58;;;1.77;;
76320;SDS011;65132;52.088;5.402;2023-04-24T00:38:08;3.83;;;1.45;;
76320;SDS011;65132;52.088;5.402;2023-04-24T00:40:41;4.18;;;1.58;;
76320;SDS011;65132;52.088;5.402;2023-04-24T00:43:09;3.13;;;1.90;;
76320;SDS011;65132;52.088;5.402;2023-04-24T00:45:36;4.35;;;1.52;;
76320;SDS011;65132;52.088;5.402;2023-04-24T00:48:02;3.55;;;1.40;;
76320;SDS011;65132;52.088;5.402;2023-04-24T00:50:32;4.45;;;1.95;;
76320;SDS011;65132;52.088;5.402;2023-04-24T00:52:59;5.90;;;2.83;;
76320;SDS011;65132;52.088;5.402;2023-04-24T00:55:25;3.42;;;1.60;;
76320;SDS011;65132;52.088;5.402;2023-04-24T00:57:51;3.45;;;1.67;;
76320;SDS011;65132;52.088;5.402;2023-04-24T01:00:18;4.35;;;2.22;;
76320;SDS011;65132;52.088;5.402;2023-04-24T01:02:47;5.45;;;2.15;;
76320;SDS011;65132;52.088;5.402;2023-04-24T01:05:15;3.50;;;1.45;;
76320;SDS011;65132;52.088;5.402;2023-04-24T01:07:47;4.35;;;2.33;;
76320;SDS011;65132;52.088;5.402;2023-04-24T01:10:14;4.70;;;1.88;;
76320;SDS011;65132;52.088;5.402;2023-04-24T01:12:40;4.55;;;1.95;;
76320;SDS011;65132;52.088;5.402;2023-04-24T01:15:07;5.15;;;2.67;;
76320;SDS011;65132;52.088;5.402;2023-04-24T01:17:33;5.63;;;2.35;;
76320;SDS011;65132;52.088;5.402;2023-04-24T01:20:00;4.32;;;2.30;;
76320;SDS011;65132;52.088;5.402;2023-04-24T01:22:32;4.28;;;2.20;;
76320;SDS011;65132;52.088;5.402;2023-04-24T01:24:59;5.32;;;2.60;;
76320;SDS011;65132;52.088;5.402;2023-04-24T01:27:25;5.95;;;2.03;;
76320;SDS011;65132;52.088;5.402;2023-04-24T01:29:51;5.63;;;2.35;;
76320;SDS011;65132;52.088;5.402;2023-04-24T01:32:26;5.00;;;2.53;;
76320;SDS011;65132;52.088;5.402;2023-04-24T01:34:55;6.20;;;3.10;;
76320;SDS011;65132;52.088;5.402;2023-04-24T01:37:21;6.93;;;3.10;;
76320;SDS011;65132;52.088;5.402;2023-04-24T01:39:48;4.57;;;2.17;;
76320;SDS011;65132;52.088;5.402;2023-04-24T01:42:14;5.80;;;3.03;;
76320;SDS011;65132;52.088;5.402;2023-04-24T01:44:40;6.60;;;2.63;;
76320;SDS011;65132;52.088;5.402;2023-04-24T01:47:07;6.30;;;3.10;;
76320;SDS011;65132;52.088;5.402;2023-04-24T01:49:33;5.13;;;2.60;;
76320;SDS011;65132;52.088;5.402;2023-04-24T01:52:00;4.60;;;2.40;;
76320;SDS011;65132;52.088;5.402;2023-04-24T01:54:26;4.38;;;2.22;;
76320;SDS011;65132;52.088;5.402;2023-04-24T01:56:53;4.40;;;2.13;;
76320;SDS011;65132;52.088;5.402;2023-04-24T01:59:19;4.93;;;2.40;;
76320;SDS011;65132;52.088;5.402;2023-04-24T02:01:46;4.53;;;2.17;;
76320;SDS011;65132;52.088;5.402;2023-04-24T02:04:12;4.55;;;2.00;;
76320;SDS011;65132;52.088;5.402;2023-04-24T02:06:39;4.22;;;2.15;;
76320;SDS011;65132;52.088;5.402;2023-04-24T02:09:07;4.70;;;2.20;;
76320;SDS011;65132;52.088;5.402;2023-04-24T02:11:34;6.38;;;2.05;;
76320;SDS011;65132;52.088;5.402;2023-04-24T02:14:00;5.13;;;2.05;;
76320;SDS011;65132;52.088;5.402;2023-04-24T02:16:27;5.68;;;2.30;;
76320;SDS011;65132;52.088;5.402;2023-04-24T02:18:57;4.68;;;1.98;;
76320;SDS011;65132;52.088;5.402;2023-04-24T02:21:24;5.18;;;2.15;;
76320;SDS011;65132;52.088;5.402;2023-04-24T02:23:50;4.63;;;1.77;;
76320;SDS011;65132;52.088;5.402;2023-04-24T02:26:16;5.93;;;1.70;;
76320;SDS011;65132;52.088;5.402;2023-04-24T02:28:43;6.50;;;2.08;;
76320;SDS011;65132;52.088;5.402;2023-04-24T02:31:12;4.32;;;1.73;;
76320;SDS011;65132;52.088;5.402;2023-04-24T02:33:38;5.47;;;2.45;;
76320;SDS011;65132;52.088;5.402;2023-04-24T02:36:07;5.82;;;2.00;;
76320;SDS011;65132;52.088;5.402;2023-04-24T02:38:36;7.88;;;2.53;;
76320;SDS011;65132;52.088;5.402;2023-04-24T02:41:03;6.07;;;2.20;;
76320;SDS011;65132;52.088;5.402;2023-04-24T02:43:29;7.63;;;2.88;;
76320;SDS011;65132;52.088;5.402;2023-04-24T02:45:55;7.13;;;2.72;;
76320;SDS011;65132;52.088;5.402;2023-04-24T02:48:23;5.72;;;2.83;;
76320;SDS011;65132;52.088;5.402;2023-04-24T02:50:49;7.13;;;2.80;;
76320;SDS011;65132;52.088;5.402;2023-04-24T02:53:16;4.72;;;2.40;;
76320;SDS011;65132;52.088;5.402;2023-04-24T02:55:42;7.00;;;2.80;;
76320;SDS011;65132;52.088;5.402;2023-04-24T03:00:39;5.40;;;2.17;;
76320;SDS011;65132;52.088;5.402;2023-04-24T03:03:08;8.10;;;2.55;;
76320;SDS011;65132;52.088;5.402;2023-04-24T03:05:34;4.00;;;1.75;;
76320;SDS011;65132;52.088;5.402;2023-04-24T03:08:00;5.80;;;2.80;;
76320;SDS011;65132;52.088;5.402;2023-04-24T03:10:27;6.07;;;2.42;;
76320;SDS011;65132;52.088;5.402;2023-04-24T03:12:53;5.78;;;2.50;;
76320;SDS011;65132;52.088;5.402;2023-04-24T03:15:20;6.80;;;2.53;;
76320;SDS011;65132;52.088;5.402;2023-04-24T03:17:47;5.45;;;2.53;;
76320;SDS011;65132;52.088;5.402;2023-04-24T03:20:13;6.53;;;2.63;;
76320;SDS011;65132;52.088;5.402;2023-04-24T03:22:39;6.53;;;3.15;;
76320;SDS011;65132;52.088;5.402;2023-04-24T03:25:06;6.78;;;2.60;;
76320;SDS011;65132;52.088;5.402;2023-04-24T03:27:32;5.75;;;2.25;;
76320;SDS011;65132;52.088;5.402;2023-04-24T03:29:58;5.32;;;2.25;;
76320;SDS011;65132;52.088;5.402;2023-04-24T03:32:25;5.75;;;1.92;;
76320;SDS011;65132;52.088;5.402;2023-04-24T03:34:54;5.97;;;2.55;;
76320;SDS011;65132;52.088;5.402;2023-04-24T03:37:20;5.15;;;1.88;;
76320;SDS011;65132;52.088;5.402;2023-04-24T03:39:46;3.55;;;1.50;;
76320;SDS011;65132;52.088;5.402;2023-04-24T03:42:18;5.75;;;2.13;;
76320;SDS011;65132;52.088;5.402;2023-04-24T03:44:47;6.05;;;2.33;;
76320;SDS011;65132;52.088;5.402;2023-04-24T03:47:13;4.28;;;1.95;;
76320;SDS011;65132;52.088;5.402;2023-04-24T03:49:40;4.00;;;1.92;;
76320;SDS011;65132;52.088;5.402;2023-04-24T03:52:07;4.05;;;1.73;;
76320;SDS011;65132;52.088;5.402;2023-04-24T03:54:33;5.03;;;2.35;;
76320;SDS011;65132;52.088;5.402;2023-04-24T03:56:59;5.65;;;2.35;;
76320;SDS011;65132;52.088;5.402;2023-04-24T03:59:28;7.78;;;2.20;;
76320;SDS011;65132;52.088;5.402;2023-04-24T04:01:56;5.45;;;2.33;;
76320;SDS011;65132;52.088;5.402;2023-04-24T04:04:22;7.03;;;2.85;;
76320;SDS011;65132;52.088;5.402;2023-04-24T04:06:49;5.93;;;2.15;;
76320;SDS011;65132;52.088;5.402;2023-04-24T04:09:18;6.53;;;2.65;;
76320;SDS011;65132;52.088;5.402;2023-04-24T04:11:46;5.22;;;2.17;;
76320;SDS011;65132;52.088;5.402;2023-04-24T04:14:13;5.78;;;2.60;;
76320;SDS011;65132;52.088;5.402;2023-04-24T04:16:39;5.00;;;2.15;;
76320;SDS011;65132;52.088;5.402;2023-04-24T04:19:05;5.45;;;2.30;;
76320;SDS011;65132;52.088;5.402;2023-04-24T04:21:34;7.10;;;2.42;;
76320;SDS011;65132;52.088;5.402;2023-04-24T04:24:01;5.60;;;2.47;;
76320;SDS011;65132;52.088;5.402;2023-04-24T04:26:27;6.22;;;2.17;;
76320;SDS011;65132;52.088;5.402;2023-04-24T04:28:54;6.78;;;2.95;;
76320;SDS011;65132;52.088;5.402;2023-04-24T04:31:26;6.78;;;2.40;;
76320;SDS011;65132;52.088;5.402;2023-04-24T04:33:55;4.90;;;2.13;;
76320;SDS011;65132;52.088;5.402;2023-04-24T04:36:21;7.93;;;3.17;;
76320;SDS011;65132;52.088;5.402;2023-04-24T04:38:50;7.47;;;2.60;;
76320;SDS011;65132;52.088;5.402;2023-04-24T04:41:23;5.68;;;2.15;;
76320;SDS011;65132;52.088;5.402;2023-04-24T04:43:55;5.40;;;1.88;;
76320;SDS011;65132;52.088;5.402;2023-04-24T04:46:21;7.10;;;2.35;;
76320;SDS011;65132;52.088;5.402;2023-04-24T04:48:51;6.72;;;1.98;;
76320;SDS011;65132;52.088;5.402;2023-04-24T04:51:17;6.30;;;2.20;;
76320;SDS011;65132;52.088;5.402;2023-04-24T04:53:43;5.72;;;2.22;;
76320;SDS011;65132;52.088;5.402;2023-04-24T04:56:09;5.40;;;2.22;;
76320;SDS011;65132;52.088;5.402;2023-04-24T04:58:38;4.93;;;1.70;;
76320;SDS011;65132;52.088;5.402;2023-04-24T05:01:09;5.32;;;2.10;;
76320;SDS011;65132;52.088;5.402;2023-04-24T05:03:35;6.78;;;1.90;;
76320;SDS011;65132;52.088;5.402;2023-04-24T05:06:02;6.40;;;2.35;;
76320;SDS011;65132;52.088;5.402;2023-04-24T05:08:28;7.28;;;2.00;;
76320;SDS011;65132;52.088;5.402;2023-04-24T05:10:55;4.82;;;2.10;;
76320;SDS011;65132;52.088;5.402;2023-04-24T05:13:21;4.53;;;1.52;;
76320;SDS011;65132;52.088;5.402;2023-04-24T05:16:06;4.88;;;1.60;;
76320;SDS011;65132;52.088;5.402;2023-04-24T05:18:32;4.55;;;1.73;;
76320;SDS011;65132;52.088;5.402;2023-04-24T05:21:01;5.65;;;2.10;;
76320;SDS011;65132;52.088;5.402;2023-04-24T05:23:27;4.57;;;2.05;;
76320;SDS011;65132;52.088;5.402;2023-04-24T05:25:54;6.95;;;2.47;;
76320;SDS011;65132;52.088;5.402;2023-04-24T05:28:20;5.70;;;1.50;;
76320;SDS011;65132;52.088;5.402;2023-04-24T05:30:54;5.00;;;1.85;;
76320;SDS011;65132;52.088;5.402;2023-04-24T05:33:26;5.10;;;1.85;;
76320;SDS011;65132;52.088;5.402;2023-04-24T05:35:57;5.30;;;1.77;;
76320;SDS011;65132;52.088;5.402;2023-04-24T05:38:28;6.32;;;2.08;;
76320;SDS011;65132;52.088;5.402;2023-04-24T05:40:55;4.72;;;1.83;;
76320;SDS011;65132;52.088;5.402;2023-04-24T05:43:24;6.00;;;1.80;;
76320;SDS011;65132;52.088;5.402;2023-04-24T05:45:50;4.90;;;1.38;;
76320;SDS011;65132;52.088;5.402;2023-04-24T05:48:17;4.88;;;1.85;;
76320;SDS011;65132;52.088;5.402;2023-04-24T05:50:43;3.88;;;1.48;;
76320;SDS011;65132;52.088;5.402;2023-04-24T05:53:10;5.70;;;1.70;;
76320;SDS011;65132;52.088;5.402;2023-04-24T05:55:39;4.85;;;1.58;;
76320;SDS011;65132;52.088;5.402;2023-04-24T05:58:08;5.18;;;1.77;;
76320;SDS011;65132;52.088;5.402;2023-04-24T06:00:35;4.22;;;1.40;;
76320;SDS011;65132;52.088;5.402;2023-04-24T06:03:02;5.20;;;1.85;;
76320;SDS011;65132;52.088;5.402;2023-04-24T06:05:31;6.82;;;1.80;;
76320;SDS011;65132;52.088;5.402;2023-04-24T06:07:57;4.68;;;1.25;;
76320;SDS011;65132;52.088;5.402;2023-04-24T06:10:23;4.68;;;1.63;;
76320;SDS011;65132;52.088;5.402;2023-04-24T06:12:51;2.85;;;0.75;;
76320;SDS011;65132;52.088;5.402;2023-04-24T06:15:17;2.58;;;0.60;;
76320;SDS011;65132;52.088;5.402;2023-04-24T06:17:43;1.80;;;0.40;;
76320;SDS011;65132;52.088;5.402;2023-04-24T06:20:10;2.70;;;0.60;;
76320;SDS011;65132;52.088;5.402;2023-04-24T06:22:36;2.28;;;0.60;;
76320;SDS011;65132;52.088;5.402;2023-04-24T06:25:03;2.70;;;0.30;;
76320;SDS011;65132;52.088;5.402;2023-04-24T06:27:32;1.38;;;0.32;;
76320;SDS011;65132;52.088;5.402;2023-04-24T06:30:04;3.60;;;0.40;;
76320;SDS011;65132;52.088;5.402;2023-04-24T06:32:30;3.08;;;0.35;;
76320;SDS011;65132;52.088;5.402;2023-04-24T06:34:57;1.45;;;0.30;;
76320;SDS011;65132;52.088;5.402;2023-04-24T06:37:25;1.33;;;0.32;;
76320;SDS011;65132;52.088;5.402;2023-04-24T06:39:54;1.33;;;0.30;;
76320;SDS011;65132;52.088;5.402;2023-04-24T06:42:20;1.65;;;0.60;;
76320;SDS011;65132;52.088;5.402;2023-04-24T06:44:47;3.08;;;0.65;;
76320;SDS011;65132;52.088;5.402;2023-04-24T06:47:15;4.63;;;1.50;;
76320;SDS011;65132;52.088;5.402;2023-04-24T06:49:42;4.53;;;1.50;;
76320;SDS011;65132;52.088;5.402;2023-04-24T06:52:10;5.97;;;2.60;;
76320;SDS011;65132;52.088;5.402;2023-04-24T06:54:38;5.90;;;2.42;;
76320;SDS011;65132;52.088;5.402;2023-04-24T06:57:08;8.25;;;3.22;;
76320;SDS011;65132;52.088;5.402;2023-04-24T06:59:36;9.63;;;3.65;;
76320;SDS011;65132;52.088;5.402;2023-04-24T07:02:03;11.02;;;3.75;;
76320;SDS011;65132;52.088;5.402;2023-04-24T07:04:31;10.82;;;4.97;;
76320;SDS011;65132;52.088;5.402;2023-04-24T07:06:57;9.02;;;3.80;;
76320;SDS011;65132;52.088;5.402;2023-04-24T07:09:25;9.20;;;3.92;;
76320;SDS011;65132;52.088;5.402;2023-04-24T07:11:51;10.73;;;5.10;;
76320;SDS011;65132;52.088;5.402;2023-04-24T07:14:20;10.10;;;4.72;;
76320;SDS011;65132;52.088;5.402;2023-04-24T07:16:46;12.52;;;4.50;;
76320;SDS011;65132;52.088;5.402;2023-04-24T07:19:12;8.02;;;3.75;;
76320;SDS011;65132;52.088;5.402;2023-04-24T07:21:39;10.57;;;4.57;;
76320;SDS011;65132;52.088;5.402;2023-04-24T07:24:06;11.52;;;4.55;;
76320;SDS011;65132;52.088;5.402;2023-04-24T07:26:33;8.75;;;4.13;;
76320;SDS011;65132;52.088;5.402;2023-04-24T07:28:59;10.18;;;4.05;;
76320;SDS011;65132;52.088;5.402;2023-04-24T07:31:25;12.48;;;4.68;;
76320;SDS011;65132;52.088;5.402;2023-04-24T07:33:51;12.27;;;5.32;;
76320;SDS011;65132;52.088;5.402;2023-04-24T07:36:18;10.13;;;4.10;;
76320;SDS011;65132;52.088;5.402;2023-04-24T07:38:47;13.73;;;5.63;;
76320;SDS011;65132;52.088;5.402;2023-04-24T07:41:13;10.70;;;4.30;;
76320;SDS011;65132;52.088;5.402;2023-04-24T07:43:40;11.52;;;4.07;;
76320;SDS011;65132;52.088;5.402;2023-04-24T07:46:06;10.65;;;4.50;;
76320;SDS011;65132;52.088;5.402;2023-04-24T07:48:34;10.25;;;4.80;;
76320;SDS011;65132;52.088;5.402;2023-04-24T07:51:02;8.23;;;3.67;;
76320;SDS011;65132;52.088;5.402;2023-04-24T07:53:28;12.10;;;4.30;;
76320;SDS011;65132;52.088;5.402;2023-04-24T07:55:55;6.40;;;3.00;;
76320;SDS011;65132;52.088;5.402;2023-04-24T07:58:29;10.50;;;4.15;;
76320;SDS011;65132;52.088;5.402;2023-04-24T08:00:56;11.75;;;4.63;;
76320;SDS011;65132;52.088;5.402;2023-04-24T08:03:22;9.57;;;3.85;;
76320;SDS011;65132;52.088;5.402;2023-04-24T08:05:49;8.10;;;4.20;;
76320;SDS011;65132;52.088;5.402;2023-04-24T08:08:15;10.02;;;3.83;;
76320;SDS011;65132;52.088;5.402;2023-04-24T08:10:41;10.95;;;4.03;;
76320;SDS011;65132;52.088;5.402;2023-04-24T08:13:10;12.48;;;3.38;;
76320;SDS011;65132;52.088;5.402;2023-04-24T08:15:37;10.63;;;3.33;;
76320;SDS011;65132;52.088;5.402;2023-04-24T08:18:04;9.95;;;3.88;;
76320;SDS011;65132;52.088;5.402;2023-04-24T08:20:30;9.07;;;2.83;;
76320;SDS011;65132;52.088;5.402;2023-04-24T08:22:59;7.18;;;1.75;;
76320;SDS011;65132;52.088;5.402;2023-04-24T08:25:35;8.77;;;2.17;;
76320;SDS011;65132;52.088;5.402;2023-04-24T08:28:02;7.28;;;1.60;;
76320;SDS011;65132;52.088;5.402;2023-04-24T08:30:28;5.00;;;1.75;;
76320;SDS011;65132;52.088;5.402;2023-04-24T08:32:54;8.50;;;2.08;;
76320;SDS011;65132;52.088;5.402;2023-04-24T08:35:21;5.63;;;1.52;;
76320;SDS011;65132;52.088;5.402;2023-04-24T08:37:47;8.15;;;1.70;;
76320;SDS011;65132;52.088;5.402;2023-04-24T08:40:16;11.85;;;2.20;;
76320;SDS011;65132;52.088;5.402;2023-04-24T08:42:43;7.38;;;1.63;;
76320;SDS011;65132;52.088;5.402;2023-04-24T08:45:10;12.63;;;1.95;;
76320;SDS011;65132;52.088;5.402;2023-04-24T08:47:40;7.95;;;1.52;;
76320;SDS011;65132;52.088;5.402;2023-04-24T08:50:07;6.18;;;1.33;;
76320;SDS011;65132;52.088;5.402;2023-04-24T08:52:34;5.13;;;1.88;;
76320;SDS011;65132;52.088;5.402;2023-04-24T08:55:00;4.95;;;1.08;;
76320;SDS011;65132;52.088;5.402;2023-04-24T08:57:27;13.30;;;1.55;;
76320;SDS011;65132;52.088;5.402;2023-04-24T08:59:53;3.92;;;1.15;;
76320;SDS011;65132;52.088;5.402;2023-04-24T09:02:20;5.45;;;0.80;;
76320;SDS011;65132;52.088;5.402;2023-04-24T09:04:50;4.30;;;1.00;;
76320;SDS011;65132;52.088;5.402;2023-04-24T09:07:17;7.30;;;1.27;;
76320;SDS011;65132;52.088;5.402;2023-04-24T09:09:44;5.20;;;1.02;;
76320;SDS011;65132;52.088;5.402;2023-04-24T09:12:11;6.35;;;0.70;;
76320;SDS011;65132;52.088;5.402;2023-04-24T09:14:40;5.47;;;1.05;;
76320;SDS011;65132;52.088;5.402;2023-04-24T09:17:07;6.45;;;0.75;;
76320;SDS011;65132;52.088;5.402;2023-04-24T09:19:36;5.32;;;1.50;;
76320;SDS011;65132;52.088;5.402;2023-04-24T09:22:08;6.72;;;1.20;;
76320;SDS011;65132;52.088;5.402;2023-04-24T09:24:35;5.95;;;1.05;;
76320;SDS011;65132;52.088;5.402;2023-04-24T09:27:01;6.65;;;1.05;;
76320;SDS011;65132;52.088;5.402;2023-04-24T09:29:30;5.25;;;0.90;;
76320;SDS011;65132;52.088;5.402;2023-04-24T09:31:56;6.47;;;1.27;;
76320;SDS011;65132;52.088;5.402;2023-04-24T09:34:26;6.10;;;1.08;;
76320;SDS011;65132;52.088;5.402;2023-04-24T09:36:53;5.50;;;1.10;;
76320;SDS011;65132;52.088;5.402;2023-04-24T09:39:19;7.20;;;0.98;;
76320;SDS011;65132;52.088;5.402;2023-04-24T09:41:50;6.18;;;1.50;;
76320;SDS011;65132;52.088;5.402;2023-04-24T09:46:46;5.53;;;1.15;;
76320;SDS011;65132;52.088;5.402;2023-04-24T09:49:15;7.30;;;1.10;;
76320;SDS011;65132;52.088;5.402;2023-04-24T09:51:42;3.25;;;1.00;;
76320;SDS011;65132;52.088;5.402;2023-04-24T09:54:15;6.22;;;1.10;;
76320;SDS011;65132;52.088;5.402;2023-04-24T09:56:42;6.65;;;1.50;;
76320;SDS011;65132;52.088;5.402;2023-04-24T09:59:11;3.90;;;1.10;;
76320;SDS011;65132;52.088;5.402;2023-04-24T10:01:40;5.47;;;1.13;;
76320;SDS011;65132;52.088;5.402;2023-04-24T10:06:42;2.95;;;0.77;;
76320;SDS011;65132;52.088;5.402;2023-04-24T10:09:10;5.03;;;0.60;;
76320;SDS011;65132;52.088;5.402;2023-04-24T10:11:43;4.68;;;0.75;;
76320;SDS011;65132;52.088;5.402;2023-04-24T10:14:10;6.32;;;0.82;;
76320;SDS011;65132;52.088;5.402;2023-04-24T10:16:38;4.05;;;0.90;;
76320;SDS011;65132;52.088;5.402;2023-04-24T10:19:05;7.40;;;0.50;;
76320;SDS011;65132;52.088;5.402;2023-04-24T10:21:39;3.95;;;0.75;;
76320;SDS011;65132;52.088;5.402;2023-04-24T10:24:07;3.22;;;0.80;;
76320;SDS011;65132;52.088;5.402;2023-04-24T10:26:34;1.92;;;0.38;;
76320;SDS011;65132;52.088;5.402;2023-04-24T10:29:00;2.45;;;0.47;;
76320;SDS011;65132;52.088;5.402;2023-04-24T10:31:28;2.38;;;0.30;;
76320;SDS011;65132;52.088;5.402;2023-04-24T10:33:59;2.55;;;0.50;;
76320;SDS011;65132;52.088;5.402;2023-04-24T10:36:25;3.75;;;0.40;;
76320;SDS011;65132;52.088;5.402;2023-04-24T10:38:56;1.67;;;0.20;;
76320;SDS011;65132;52.088;5.402;2023-04-24T10:44:05;1.67;;;0.30;;
76320;SDS011;65132;52.088;5.402;2023-04-24T10:46:33;3.80;;;0.20;;
76320;SDS011;65132;52.088;5.402;2023-04-24T10:48:59;2.05;;;0.20;;
76320;SDS011;65132;52.088;5.402;2023-04-24T10:51:45;0.88;;;0.22;;
76320;SDS011;65132;52.088;5.402;2023-04-24T10:54:27;3.72;;;0.10;;
76320;SDS011;65132;52.088;5.402;2023-04-24T10:57:26;3.35;;;0.20;;
76320;SDS011;65132;52.088;5.402;2023-04-24T10:59:39;2.78;;;0.20;;
76320;SDS011;65132;52.088;5.402;2023-04-24T11:02:07;4.53;;;0.40;;
76320;SDS011;65132;52.088;5.402;2023-04-24T11:04:34;4.57;;;0.30;;
76320;SDS011;65132;52.088;5.402;2023-04-24T11:07:02;3.00;;;0.40;;
76320;SDS011;65132;52.088;5.402;2023-04-24T11:09:32;1.48;;;0.10;;
76320;SDS011;65132;52.088;5.402;2023-04-24T11:12:07;3.92;;;0.52;;
76320;SDS011;65132;52.088;5.402;2023-04-24T11:19:57;5.82;;;0.30;;
76320;SDS011;65132;52.088;5.402;2023-04-24T11:25:03;1.60;;;0.20;;
76320;SDS011;65132;52.088;5.402;2023-04-24T11:27:30;3.22;;;0.98;;
76320;SDS011;65132;52.088;5.402;2023-04-24T11:35:34;2.33;;;0.20;;
76320;SDS011;65132;52.088;5.402;2023-04-24T11:37:41;3.42;;;0.50;;
76320;SDS011;65132;52.088;5.402;2023-04-24T11:40:20;3.03;;;0.45;;
76320;SDS011;65132;52.088;5.402;2023-04-24T11:42:47;2.85;;;0.35;;
76320;SDS011;65132;52.088;5.402;2023-04-24T11:47:44;3.50;;;0.95;;
76320;SDS011;65132;52.088;5.402;2023-04-24T11:50:12;2.40;;;0.32;;
76320;SDS011;65132;52.088;5.402;2023-04-24T11:52:42;3.50;;;0.47;;
76320;SDS011;65132;52.088;5.402;2023-04-24T11:57:43;2.17;;;0.20;;
76320;SDS011;65132;52.088;5.402;2023-04-24T12:00:15;1.52;;;0.17;;
76320;SDS011;65132;52.088;5.402;2023-04-24T12:02:41;1.75;;;0.20;;
76320;SDS011;65132;52.088;5.402;2023-04-24T12:05:20;2.85;;;0.30;;
76320;SDS011;65132;52.088;5.402;2023-04-24T12:07:52;2.05;;;0.10;;
76320;SDS011;65132;52.088;5.402;2023-04-24T12:10:27;1.50;;;0.20;;
76320;SDS011;65132;52.088;5.402;2023-04-24T12:12:56;2.20;;;0.38;;
76320;SDS011;65132;52.088;5.402;2023-04-24T12:15:24;1.67;;;0.30;;
76320;SDS011;65132;52.088;5.402;2023-04-24T12:17:51;1.08;;;0.10;;
76320;SDS011;65132;52.088;5.402;2023-04-24T12:20:23;3.42;;;0.50;;
76320;SDS011;65132;52.088;5.402;2023-04-24T12:22:54;5.97;;;0.20;;
76320;SDS011;65132;52.088;5.402;2023-04-24T12:25:21;3.95;;;0.60;;
76320;SDS011;65132;52.088;5.402;2023-04-24T12:27:52;2.95;;;0.40;;
76320;SDS011;65132;52.088;5.402;2023-04-24T12:30:19;1.63;;;0.40;;
76320;SDS011;65132;52.088;5.402;2023-04-24T12:32:46;1.40;;;0.30;;
76320;SDS011;65132;52.088;5.402;2023-04-24T12:35:18;3.90;;;0.40;;
76320;SDS011;65132;52.088;5.402;2023-04-24T12:37:45;3.22;;;0.40;;
76320;SDS011;65132;52.088;5.402;2023-04-24T12:40:16;5.05;;;0.40;;
76320;SDS011;65132;52.088;5.402;2023-04-24T12:42:47;2.55;;;0.32;;
76320;SDS011;65132;52.088;5.402;2023-04-24T12:45:14;4.18;;;0.50;;
76320;SDS011;65132;52.088;5.402;2023-04-24T12:47:40;5.55;;;0.50;;
76320;SDS011;65132;52.088;5.402;2023-04-24T12:52:42;2.95;;;0.50;;
76320;SDS011;65132;52.088;5.402;2023-04-24T12:55:10;5.05;;;0.65;;
76320;SDS011;65132;52.088;5.402;2023-04-24T12:57:39;3.67;;;0.70;;
76320;SDS011;65132;52.088;5.402;2023-04-24T13:00:06;5.40;;;0.90;;
76320;SDS011;65132;52.088;5.402;2023-04-24T13:02:33;2.17;;;0.40;;
76320;SDS011;65132;52.088;5.402;2023-04-24T13:04:59;3.13;;;0.52;;
76320;SDS011;65132;52.088;5.402;2023-04-24T13:07:26;1.42;;;0.30;;
76320;SDS011;65132;52.088;5.402;2023-04-24T13:09:54;3.65;;;0.50;;
76320;SDS011;65132;52.088;5.402;2023-04-24T13:12:22;6.82;;;0.60;;
76320;SDS011;65132;52.088;5.402;2023-04-24T13:19:56;4.07;;;0.77;;
76320;SDS011;65132;52.088;5.402;2023-04-24T13:22:36;6.78;;;0.60;;
76320;SDS011;65132;52.088;5.402;2023-04-24T13:25:17;5.65;;;1.00;;
76320;SDS011;65132;52.088;5.402;2023-04-24T13:27:43;3.08;;;0.50;;
76320;SDS011;65132;52.088;5.402;2023-04-24T13:30:10;8.55;;;1.45;;
76320;SDS011;65132;52.088;5.402;2023-04-24T13:32:52;6.18;;;0.93;;
76320;SDS011;65132;52.088;5.402;2023-04-24T13:35:23;4.22;;;0.77;;
76320;SDS011;65132;52.088;5.402;2023-04-24T13:40:30;10.48;;;1.42;;
76320;SDS011;65132;52.088;5.402;2023-04-24T13:42:56;5.13;;;0.95;;
76320;SDS011;65132;52.088;5.402;2023-04-24T13:45:23;4.57;;;1.35;;
76320;SDS011;65132;52.088;5.402;2023-04-24T13:47:50;9.10;;;0.85;;
76320;SDS011;65132;52.088;5.402;2023-04-24T13:50:18;5.10;;;1.55;;
76320;SDS011;65132;52.088;5.402;2023-04-24T13:52:44;6.20;;;0.90;;
76320;SDS011;65132;52.088;5.402;2023-04-24T13:55:10;4.63;;;1.05;;
76320;SDS011;65132;52.088;5.402;2023-04-24T13:57:37;5.68;;;1.13;;
76320;SDS011;65132;52.088;5.402;2023-04-24T14:00:03;5.80;;;1.33;;
76320;SDS011;65132;52.088;5.402;2023-04-24T14:02:30;5.72;;;1.08;;
76320;SDS011;65132;52.088;5.402;2023-04-24T14:04:56;4.97;;;0.80;;
76320;SDS011;65132;52.088;5.402;2023-04-24T14:07:26;5.82;;;1.02;;
76320;SDS011;65132;52.088;5.402;2023-04-24T14:09:53;4.82;;;1.02;;
76320;SDS011;65132;52.088;5.402;2023-04-24T14:12:20;2.75;;;0.65;;
76320;SDS011;65132;52.088;5.402;2023-04-24T14:14:46;4.68;;;0.68;;
76320;SDS011;65132;52.088;5.402;2023-04-24T14:17:13;3.08;;;0.80;;
76320;SDS011;65132;52.088;5.402;2023-04-24T14:19:39;5.18;;;0.85;;
76320;SDS011;65132;52.088;5.402;2023-04-24T14:22:05;4.38;;;0.88;;
76320;SDS011;65132;52.088;5.402;2023-04-24T14:24:34;3.25;;;0.75;;
76320;SDS011;65132;52.088;5.402;2023-04-24T14:27:03;4.82;;;0.77;;
76320;SDS011;65132;52.088;5.402;2023-04-24T14:29:30;4.82;;;1.65;;
76320;SDS011;65132;52.088;5.402;2023-04-24T14:34:42;6.57;;;1.27;;
76320;SDS011;65132;52.088;5.402;2023-04-24T14:37:08;8.95;;;1.45;;
76320;SDS011;65132;52.088;5.402;2023-04-24T14:44:58;7.72;;;1.38;;
76320;SDS011;65132;52.088;5.402;2023-04-24T14:47:27;9.05;;;1.77;;
76320;SDS011;65132;52.088;5.402;2023-04-24T14:49:56;5.90;;;1.15;;
76320;SDS011;65132;52.088;5.402;2023-04-24T15:08:13;5.28;;;1.42;;
76320;SDS011;65132;52.088;5.402;2023-04-24T15:10:39;4.00;;;1.75;;
76320;SDS011;65132;52.088;5.402;2023-04-24T15:13:05;4.25;;;1.17;;
76320;SDS011;65132;52.088;5.402;2023-04-24T15:15:34;5.07;;;1.05;;
76320;SDS011;65132;52.088;5.402;2023-04-24T15:20:35;7.00;;;1.25;;
76320;SDS011;65132;52.088;5.402;2023-04-24T15:23:08;9.27;;;1.75;;
76320;SDS011;65132;52.088;5.402;2023-04-24T15:25:34;4.80;;;1.40;;
76320;SDS011;65132;52.088;5.402;2023-04-24T15:28:00;7.93;;;1.58;;
76320;SDS011;65132;52.088;5.402;2023-04-24T15:30:29;8.25;;;1.30;;
76320;SDS011;65132;52.088;5.402;2023-04-24T15:32:56;5.88;;;1.70;;
76320;SDS011;65132;52.088;5.402;2023-04-24T15:35:22;9.48;;;1.75;;
76320;SDS011;65132;52.088;5.402;2023-04-24T15:37:48;5.30;;;1.08;;
76320;SDS011;65132;52.088;5.402;2023-04-24T15:40:15;8.32;;;1.95;;
76320;SDS011;65132;52.088;5.402;2023-04-24T15:42:41;7.20;;;2.05;;
76320;SDS011;65132;52.088;5.402;2023-04-24T15:45:10;9.07;;;2.22;;
76320;SDS011;65132;52.088;5.402;2023-04-24T15:47:39;9.57;;;1.95;;
76320;SDS011;65132;52.088;5.402;2023-04-24T15:50:06;10.48;;;1.58;;
76320;SDS011;65132;52.088;5.402;2023-04-24T15:52:39;7.07;;;1.85;;
76320;SDS011;65132;52.088;5.402;2023-04-24T15:55:13;7.00;;;1.52;;